Time;durP1;ratioP1;P1;durP2;ratioP2;P2;SDS_P1;SDS_P2;PMS_P1;PMS_P2;Temp;Humidity;BMP_temperature;BMP_pressure;BME280_temperature;BME280_humidity;BME280_pressure;Samples;Min_cycle;Max_cycle;Signal;HPM_P1;HPM_P2
2021/12/25 00:01:04;;;;;;;11.68;6.15;;;;;;;5.76;87.15;100155.88;5054565;28;20449;-65
2021/12/25 00:03:32;;;;;;;11.37;6.40;;;;;;;5.84;87.34;100140.22;5053164;28;20151;-66
2021/12/25 00:05:59;;;;;;;13.05;7.03;;;;;;;5.87;87.52;100139.94;5054233;28;20037;-66
2021/12/25 00:08:28;;;;;;;11.68;6.55;;;;;;;5.89;87.23;100142.44;5052540;28;20099;-66
2021/12/25 00:10:59;;;;;;;12.85;6.65;;;;;;;5.81;86.80;100132.59;5033131;28;20438;-66
2021/12/25 00:13:25;;;;;;;12.52;6.72;;;;;;;5.86;86.93;100132.19;5033294;28;20144;-66
2021/12/25 00:15:53;;;;;;;12.80;6.85;;;;;;;5.84;86.69;100134.13;5034141;28;20046;-66
2021/12/25 00:18:20;;;;;;;11.60;6.50;;;;;;;5.84;86.30;100134.97;5034603;28;20522;-66
2021/12/25 00:20:48;;;;;;;12.90;6.90;;;;;;;5.78;86.92;100140.75;5034385;28;20049;-66
2021/12/25 00:23:18;;;;;;;14.40;6.78;;;;;;;5.88;86.86;100144.25;5049930;28;20080;-66
2021/12/25 00:25:50;;;;;;;12.13;7.28;;;;;;;5.92;87.15;100136.91;5053548;28;20045;-67
2021/12/25 00:28:34;;;;;;;13.27;6.97;;;;;;;5.93;87.10;100138.53;5052986;28;20071;-66
2021/12/25 00:31:22;;;;;;;13.35;6.93;;;;;;;5.94;86.59;100137.59;5051190;28;20045;-66
2021/12/25 00:33:58;;;;;;;12.75;6.47;;;;;;;5.82;85.80;100139.53;5054013;28;20055;-66
2021/12/25 00:36:27;;;;;;;13.23;6.53;;;;;;;5.82;85.78;100147.44;5052673;28;20254;-66
2021/12/25 00:38:55;;;;;;;12.20;6.60;;;;;;;5.74;86.08;100140.22;5054830;28;20037;-65
2021/12/25 00:41:23;;;;;;;11.60;7.03;;;;;;;5.75;87.14;100134.00;5057246;28;20111;-66
2021/12/25 00:43:51;;;;;;;11.10;6.30;;;;;;;5.66;86.19;100139.25;5055995;28;20056;-66
2021/12/25 00:46:20;;;;;;;13.70;6.90;;;;;;;5.57;86.87;100146.97;5052420;28;20049;-65
2021/12/25 00:48:47;;;;;;;14.23;6.65;;;;;;;5.61;86.97;100152.81;5035819;28;20060;-65
2021/12/25 00:51:13;;;;;;;13.93;7.72;;;;;;;5.53;86.72;100153.50;5052807;28;20041;-65
2021/12/25 00:53:40;;;;;;;13.32;7.22;;;;;;;5.49;86.79;100156.50;5052140;28;20040;-65
2021/12/25 00:56:07;;;;;;;12.88;7.43;;;;;;;5.47;87.41;100151.38;5053488;28;20055;-65
2021/12/25 00:58:34;;;;;;;12.02;6.78;;;;;;;5.50;87.86;100158.19;5052554;28;20033;-65
2021/12/25 01:01:00;;;;;;;13.82;7.45;;;;;;;5.47;88.66;100156.66;5053246;28;20045;-65
2021/12/25 01:03:27;;;;;;;13.50;6.60;;;;;;;5.60;87.02;100163.47;5050431;28;20107;-66
2021/12/25 01:05:54;;;;;;;12.15;5.95;;;;;;;5.43;86.94;100155.25;5050573;28;20056;-65
2021/12/25 01:08:21;;;;;;;10.45;5.55;;;;;;;5.40;86.79;100158.16;5067943;28;20107;-65
2021/12/25 01:10:50;;;;;;;9.73;5.13;;;;;;;5.46;87.74;100157.63;5057576;28;20448;-65
2021/12/25 01:13:29;;;;;;;10.90;5.03;;;;;;;5.50;87.04;100143.22;5072103;28;20457;-65
2021/12/25 01:39:05;;;;;;;12.02;5.85;;;;;;;5.16;87.09;100148.00;5048883;28;20045;-64
2021/12/25 01:42:02;;;;;;;11.70;6.20;;;;;;;5.16;87.65;100155.88;5049563;28;20103;-65
2021/12/25 01:47:47;;;;;;;;;;;;;;;5.10;87.02;100157.25;5049894;28;20055;-64
2021/12/25 01:50:17;;;;;;;14.32;7.00;;;;;;;5.22;87.31;100155.38;5032733;28;19921;-66
2021/12/25 01:52:44;;;;;;;13.73;6.60;;;;;;;5.18;86.53;100159.19;5049723;28;20080;-64
2021/12/25 01:55:18;;;;;;;12.98;7.70;;;;;;;5.09;86.73;100160.00;5031485;28;20525;-65
2021/12/25 01:57:46;;;;;;;13.05;7.53;;;;;;;5.11;85.80;100156.28;5049589;28;20053;-66
2021/12/25 02:00:20;;;;;;;16.38;8.73;;;;;;;5.07;85.79;100159.31;5059290;28;20063;-64
2021/12/25 02:02:51;;;;;;;14.93;8.27;;;;;;;5.07;86.14;100161.94;5069594;28;20040;-64
2021/12/25 02:05:19;;;;;;;15.52;8.13;;;;;;;5.15;85.48;100157.69;5052864;28;20061;-64
2021/12/25 02:07:46;;;;;;;14.73;8.07;;;;;;;5.04;85.67;100157.78;5032570;28;20045;-64
2021/12/25 02:10:16;;;;;;;14.57;8.35;;;;;;;4.85;85.68;100158.53;5045510;28;20115;-64
2021/12/25 02:12:46;;;;;;;13.70;7.88;;;;;;;4.90;86.15;100158.13;5031323;28;20036;-64
2021/12/25 02:15:21;;;;;;;16.10;9.02;;;;;;;5.03;86.06;100156.09;5015478;28;20049;-64
2021/12/25 02:18:10;;;;;;;14.80;8.68;;;;;;;4.95;85.73;100158.59;5049150;28;20096;-64
2021/12/25 02:21:08;;;;;;;14.75;8.25;;;;;;;4.92;85.50;100159.66;5049067;28;20508;-64
2021/12/25 02:23:36;;;;;;;15.63;8.48;;;;;;;4.81;85.88;100165.00;5048921;28;20048;-64
2021/12/25 02:26:04;;;;;;;16.88;8.68;;;;;;;4.84;85.63;100158.66;5048701;28;20041;-64
2021/12/25 02:28:31;;;;;;;18.08;9.48;;;;;;;4.92;85.77;100158.84;5048631;28;20056;-64
2021/12/25 02:31:05;;;;;;;17.73;9.73;;;;;;;4.78;85.76;100160.00;5027601;28;20050;-64
2021/12/25 02:33:33;;;;;;;16.13;9.30;;;;;;;4.80;85.70;100150.19;5010342;28;20053;-64
2021/12/25 02:36:03;;;;;;;16.27;9.70;;;;;;;4.78;85.33;100144.22;5027408;28;20065;-64
2021/12/25 02:38:31;;;;;;;17.90;10.27;;;;;;;4.69;85.06;100148.47;5027549;28;20049;-64
2021/12/25 02:40:59;;;;;;;17.10;9.85;;;;;;;4.84;85.13;100141.09;5027562;28;20040;-64
2021/12/25 02:43:26;;;;;;;16.48;9.52;;;;;;;4.71;85.33;100136.06;5037601;28;20049;-64
2021/12/25 02:45:55;;;;;;;17.50;10.15;;;;;;;4.69;86.32;100135.34;5017778;28;20041;-64
2021/12/25 02:48:23;;;;;;;17.95;10.50;;;;;;;4.81;85.21;100130.84;5033775;28;20049;-64
2021/12/25 02:50:50;;;;;;;17.88;10.15;;;;;;;4.66;85.41;100134.75;5017846;28;20076;-64
2021/12/25 02:53:17;;;;;;;18.30;10.85;;;;;;;4.84;85.20;100138.47;5018138;28;20045;-64
2021/12/25 02:55:45;;;;;;;18.83;10.25;;;;;;;4.79;85.08;100132.78;5035123;28;20076;-66
2021/12/25 02:58:19;;;;;;;19.27;11.07;;;;;;;4.61;85.13;100136.00;5035055;28;20045;-64
2021/12/25 03:00:51;;;;;;;20.10;11.93;;;;;;;4.60;86.19;100138.75;5018373;28;20395;-64
2021/12/25 03:03:19;;;;;;;18.60;11.25;;;;;;;4.43;85.99;100127.06;5052535;28;20048;-64
2021/12/25 03:05:47;;;;;;;21.52;12.48;;;;;;;4.45;85.80;100135.63;5027012;28;20100;-63
2021/12/25 03:08:16;;;;;;;21.75;12.68;;;;;;;4.40;86.64;100130.78;5012520;28;20049;-64
2021/12/25 03:10:49;;;;;;;24.30;13.80;;;;;;;4.40;86.64;100143.06;5019230;28;20384;-64
2021/12/25 03:13:30;;;;;;;22.98;13.15;;;;;;;4.37;87.14;100138.09;5034727;28;20038;-64
2021/12/25 03:15:57;;;;;;;24.48;14.60;;;;;;;4.46;86.88;100128.56;5001041;28;20042;-64
2021/12/25 03:18:31;;;;;;;24.27;14.35;;;;;;;4.32;86.40;100133.19;5016702;28;20059;-64
2021/12/25 03:21:00;;;;;;;23.90;13.85;;;;;;;4.31;86.93;100130.69;5016197;28;20107;-65
2021/12/25 03:23:29;;;;;;;27.15;15.32;;;;;;;4.37;86.76;100138.91;5016553;28;20410;-65
2021/12/25 03:25:57;;;;;;;25.05;15.15;;;;;;;4.36;86.61;100133.78;5037359;28;20037;-64
2021/12/25 03:28:30;;;;;;;24.52;14.18;;;;;;;4.36;86.20;100134.59;5054660;28;20041;-65
2021/12/25 03:31:00;;;;;;;22.23;13.35;;;;;;;4.30;86.24;100143.00;5038573;28;20137;-64
2021/12/25 03:33:28;;;;;;;23.05;13.55;;;;;;;4.34;85.46;100144.41;4999050;28;20141;-64
2021/12/25 03:35:55;;;;;;;22.85;14.10;;;;;;;4.27;86.11;100143.25;5034099;28;20156;-64
2021/12/25 03:38:26;;;;;;;23.85;13.93;;;;;;;4.15;86.70;100145.13;5034769;28;20038;-64
2021/12/25 03:40:54;;;;;;;23.98;14.18;;;;;;;4.21;86.26;100151.66;5017050;28;20060;-64
2021/12/25 03:43:21;;;;;;;24.98;14.35;;;;;;;4.15;86.06;100157.41;5032950;28;20100;-64
2021/12/25 03:45:48;;;;;;;25.20;14.40;;;;;;;4.08;86.40;100146.59;5033704;28;20041;-65
2021/12/25 03:48:56;;;;;;;26.58;14.93;;;;;;;4.16;86.14;100149.41;5032830;28;20059;-64
2021/12/25 03:59:14;;;;;;;24.98;14.45;;;;;;;4.17;86.75;100147.63;5122940;28;20501;-64
2021/12/25 04:04:25;;;;;;;23.75;14.15;;;;;;;4.14;86.71;100153.13;5129503;27;20132;-65
2021/12/25 04:07:30;;;;;;;23.80;13.68;;;;;;;4.10;86.46;100152.53;5108745;28;20492;-63
2021/12/25 04:10:01;;;;;;;26.58;14.93;;;;;;;3.98;86.99;100151.78;5081505;28;20493;-65
2021/12/25 04:12:28;;;;;;;25.13;14.37;;;;;;;4.05;86.18;100149.44;5055217;28;20159;-63
2021/12/25 04:14:56;;;;;;;25.52;15.00;;;;;;;4.16;86.60;100152.00;5069486;28;20044;-63
2021/12/25 04:17:23;;;;;;;25.80;14.65;;;;;;;4.08;87.67;100151.84;5084223;28;20036;-66
2021/12/25 04:19:49;;;;;;;25.85;15.00;;;;;;;4.06;87.38;100156.38;5052088;28;20127;-64
2021/12/25 04:22:27;;;;;;;26.83;14.63;;;;;;;4.06;87.31;100148.50;5069648;28;20052;-64
2021/12/25 04:24:53;;;;;;;26.70;15.05;;;;;;;3.95;86.76;100159.06;5069596;28;20072;-63
2021/12/25 04:27:21;;;;;;;28.52;15.57;;;;;;;3.98;87.66;100164.03;5068920;28;20124;-65
2021/12/25 04:29:56;;;;;;;26.30;15.95;;;;;;;3.92;86.47;100161.94;5089187;28;20055;-66
2021/12/25 04:49:40;;;;;;;26.38;15.35;;;;;;;3.61;87.20;100188.84;5095264;28;20067;-65
2021/12/25 05:03:34;;;;;;;27.45;14.80;;;;;;;3.63;88.11;100207.91;5071501;28;20047;-66
2021/12/25 05:06:22;;;;;;;24.30;15.02;;;;;;;3.72;87.35;100200.28;5088685;28;20044;-66
2021/12/25 05:08:50;;;;;;;22.92;14.65;;;;;;;3.67;87.00;100200.63;5056667;28;20135;-65
2021/12/25 05:11:17;;;;;;;24.75;14.35;;;;;;;3.40;87.09;100204.50;5096596;28;20048;-65
2021/12/25 05:13:46;;;;;;;24.95;15.07;;;;;;;3.38;87.01;100205.56;5090962;28;20063;-65
2021/12/25 05:16:13;;;;;;;25.67;15.48;;;;;;;3.22;87.54;100203.31;5092163;28;20048;-65
2021/12/25 05:18:40;;;;;;;24.33;15.15;;;;;;;3.17;87.46;100200.22;5073153;28;20055;-65
2021/12/25 05:21:08;;;;;;;24.25;15.30;;;;;;;3.09;87.70;100198.19;5089370;28;20045;-65
2021/12/25 05:23:36;;;;;;;23.45;14.80;;;;;;;3.16;87.98;100196.75;5070358;28;20044;-65
2021/12/25 05:26:03;;;;;;;24.83;15.75;;;;;;;3.06;87.96;100198.44;5109376;28;20048;-65
2021/12/25 05:28:39;;;;;;;25.33;15.85;;;;;;;3.16;88.60;100198.56;5108375;28;20040;-65
2021/12/25 05:31:10;;;;;;;24.17;15.38;;;;;;;3.19;87.41;100199.16;5107193;28;20044;-65
2021/12/25 05:33:57;;;;;;;27.40;16.10;;;;;;;3.20;88.18;100200.81;5074158;28;20050;-65
2021/12/25 05:36:33;;;;;;;27.85;15.95;;;;;;;3.10;87.66;100199.88;5087596;28;20044;-65
2021/12/25 05:39:20;;;;;;;26.90;16.02;;;;;;;3.15;87.76;100202.97;5088776;28;20089;-65
2021/12/25 05:41:47;;;;;;;24.80;15.80;;;;;;;3.11;87.71;100200.69;5071492;28;20044;-65
2021/12/25 05:44:20;;;;;;;25.23;15.55;;;;;;;3.02;87.88;100205.72;5060610;28;20044;-65
2021/12/25 05:47:00;;;;;;;25.58;15.40;;;;;;;3.01;88.30;100204.03;5073080;28;20052;-65
2021/12/25 05:49:27;;;;;;;25.10;15.45;;;;;;;2.97;87.47;100204.41;5089006;28;20040;-65
2021/12/25 05:52:04;;;;;;;23.70;15.40;;;;;;;2.94;87.60;100215.94;5072511;28;20437;-65
2021/12/25 05:54:43;;;;;;;26.75;16.20;;;;;;;2.90;88.20;100205.81;5088443;28;20033;-65
2021/12/25 05:57:29;;;;;;;22.35;13.55;;;;;;;2.88;87.28;100213.78;5059531;28;20052;-65
2021/12/25 06:00:17;;;;;;;27.00;15.52;;;;;;;2.95;87.30;100215.00;5060701;28;20135;-65
2021/12/25 06:02:49;;;;;;;23.08;13.60;;;;;;;2.90;87.88;100213.69;5075495;28;20452;-65
2021/12/25 06:05:21;;;;;;;26.08;16.00;;;;;;;2.96;87.82;100213.19;5068506;28;20040;-65
2021/12/25 06:07:49;;;;;;;26.42;14.68;;;;;;;2.94;87.79;100220.34;5047229;28;20565;-65
2021/12/25 06:10:16;;;;;;;24.48;14.93;;;;;;;2.78;87.74;100223.28;5023773;28;20036;-65
2021/12/25 06:12:47;;;;;;;24.60;14.32;;;;;;;2.76;88.26;100233.88;5057204;28;20211;-64
2021/12/25 06:15:18;;;;;;;24.20;14.38;;;;;;;2.80;87.83;100230.09;5074883;28;20072;-64
2021/12/25 06:17:49;;;;;;;24.30;13.93;;;;;;;2.79;88.09;100235.44;5058055;28;20073;-64
2021/12/25 06:20:23;;;;;;;21.73;13.80;;;;;;;2.96;88.74;100240.22;5041686;28;20048;-65
2021/12/25 06:23:04;;;;;;;22.98;13.63;;;;;;;3.08;88.25;100241.91;5074912;28;20501;-64
2021/12/25 06:25:51;;;;;;;21.30;12.80;;;;;;;3.04;87.64;100237.88;5074694;28;20524;-63
2021/12/25 06:28:38;;;;;;;19.77;11.68;;;;;;;2.79;86.91;100246.75;5074653;28;20041;-65
2021/12/25 06:31:24;;;;;;;19.30;11.57;;;;;;;2.68;87.25;100251.97;5074427;28;20119;-64
2021/12/25 06:34:03;;;;;;;21.40;12.20;;;;;;;2.85;87.47;100254.13;5054747;28;20135;-64
2021/12/25 06:36:38;;;;;;;18.23;10.45;;;;;;;2.68;87.22;100254.59;5074184;28;20048;-65
2021/12/25 06:39:24;;;;;;;18.05;10.70;;;;;;;2.62;86.42;100260.28;5074832;28;20094;-65
2021/12/25 06:42:11;;;;;;;18.67;10.82;;;;;;;2.47;87.02;100257.00;5046016;28;20044;-64
2021/12/25 06:44:39;;;;;;;16.92;10.13;;;;;;;2.35;87.00;100261.38;5073939;28;20080;-64
2021/12/25 06:47:06;;;;;;;16.50;9.80;;;;;;;2.28;87.16;100268.00;5074076;28;20075;-63
2021/12/25 06:49:36;;;;;;;18.23;10.43;;;;;;;2.36;87.55;100259.59;5074447;28;20051;-64
2021/12/25 06:52:25;;;;;;;19.08;10.65;;;;;;;2.34;87.20;100264.09;5074225;28;20049;-64
2021/12/25 06:55:05;;;;;;;18.88;10.57;;;;;;;2.38;87.25;100265.56;5043573;28;20040;-64
2021/12/25 06:57:54;;;;;;;18.48;10.43;;;;;;;2.36;87.05;100278.75;5074104;28;20044;-64
2021/12/25 07:00:23;;;;;;;17.33;10.70;;;;;;;2.23;87.11;100275.38;5037221;28;20059;-64
2021/12/25 07:02:50;;;;;;;17.75;9.68;;;;;;;2.24;86.95;100275.25;5036536;28;20510;-64
2021/12/25 07:05:37;;;;;;;18.38;10.52;;;;;;;2.35;87.19;100276.22;5035654;28;20045;-65
2021/12/25 07:08:24;;;;;;;17.55;9.38;;;;;;;2.19;87.35;100282.59;5038281;28;20544;-65
2021/12/25 07:11:11;;;;;;;18.13;10.43;;;;;;;2.09;87.36;100278.97;5053671;28;20505;-64
2021/12/25 07:13:51;;;;;;;17.55;10.10;;;;;;;2.12;87.28;100289.22;5053935;28;20041;-64
2021/12/25 07:16:39;;;;;;;16.63;9.60;;;;;;;2.01;87.68;100284.75;5039076;28;20094;-64
2021/12/25 07:19:25;;;;;;;19.63;10.25;;;;;;;2.06;88.26;100293.13;5038632;28;20068;-65
2021/12/25 07:22:06;;;;;;;17.70;10.52;;;;;;;2.05;88.25;100299.28;5074258;28;20046;-65
2021/12/25 07:24:44;;;;;;;17.42;10.02;;;;;;;1.97;88.16;100301.63;5072988;28;20576;-63
2021/12/25 07:27:31;;;;;;;17.30;10.65;;;;;;;2.05;88.71;100307.13;5073473;28;20516;-64
2021/12/25 07:29:57;;;;;;;17.88;10.13;;;;;;;2.02;86.98;100314.38;5073562;28;20091;-64
2021/12/25 07:32:24;;;;;;;17.95;11.00;;;;;;;2.14;87.47;100308.25;5046210;28;20098;-65
2021/12/25 07:34:51;;;;;;;17.23;10.77;;;;;;;2.02;87.83;100316.97;5055359;28;20045;-65
2021/12/25 07:37:18;;;;;;;16.52;10.30;;;;;;;1.89;87.28;100312.66;5055830;28;20075;-64
2021/12/25 07:39:45;;;;;;;16.95;10.63;;;;;;;1.84;87.82;100313.91;5006594;28;20040;-65
2021/12/25 07:42:14;;;;;;;16.67;10.55;;;;;;;1.88;88.43;100316.19;5037618;28;20123;-65
2021/12/25 07:45:06;;;;;;;17.73;10.52;;;;;;;1.88;88.38;100323.22;5072437;28;20048;-65
2021/12/25 07:47:35;;;;;;;18.80;11.57;;;;;;;1.89;87.79;100323.13;5072778;28;20044;-65
2021/12/25 07:50:03;;;;;;;18.95;11.63;;;;;;;1.95;88.82;100316.59;5073101;28;20486;-65
2021/12/25 07:52:30;;;;;;;19.50;11.45;;;;;;;1.85;87.34;100326.88;5055312;28;20051;-65
2021/12/25 07:54:57;;;;;;;19.38;11.45;;;;;;;1.83;87.49;100339.22;5054544;28;20040;-64
2021/12/25 07:57:24;;;;;;;19.00;11.30;;;;;;;1.78;87.47;100328.22;5038740;28;20124;-64
2021/12/25 07:59:50;;;;;;;17.80;11.23;;;;;;;1.65;88.20;100340.50;5072410;28;20043;-64
2021/12/25 08:02:17;;;;;;;18.92;10.90;;;;;;;1.72;88.12;100345.19;5055275;28;20400;-64
2021/12/25 08:04:44;;;;;;;21.00;12.15;;;;;;;1.84;88.68;100343.53;5055063;28;20051;-65
2021/12/25 08:07:11;;;;;;;19.15;12.07;;;;;;;1.82;87.17;100341.94;5071170;28;20106;-64
2021/12/25 08:09:38;;;;;;;20.52;11.60;;;;;;;1.83;87.18;100347.06;5054920;28;20493;-65
2021/12/25 08:12:05;;;;;;;19.77;11.52;;;;;;;1.75;87.69;100352.00;5072885;28;20041;-64
2021/12/25 08:14:33;;;;;;;19.73;11.50;;;;;;;1.79;86.54;100356.06;5072366;28;20051;-65
2021/12/25 08:17:02;;;;;;;18.17;11.20;;;;;;;1.69;87.51;100355.03;5072982;28;20129;-65
2021/12/25 08:19:49;;;;;;;18.45;11.15;;;;;;;1.61;87.58;100349.50;5052584;28;20128;-64
2021/12/25 08:22:37;;;;;;;18.38;11.23;;;;;;;1.74;87.85;100360.78;5037725;28;20045;-65
2021/12/25 08:25:24;;;;;;;18.15;11.52;;;;;;;1.63;87.54;100358.91;5034849;28;20407;-65
2021/12/25 08:28:11;;;;;;;17.02;10.07;;;;;;;1.66;86.80;100360.50;5043422;28;20098;-65
2021/12/25 08:30:59;;;;;;;17.40;10.35;;;;;;;1.65;87.06;100371.88;5072337;28;20230;-65
2021/12/25 08:33:46;;;;;;;19.88;10.90;;;;;;;1.72;87.06;100375.75;5069745;28;20090;-65
2021/12/25 08:36:33;;;;;;;16.88;10.35;;;;;;;1.73;87.44;100382.66;5072588;28;20132;-64
2021/12/25 08:39:00;;;;;;;16.85;10.70;;;;;;;1.60;86.32;100379.19;5054683;28;20468;-64
2021/12/25 08:41:30;;;;;;;18.77;11.30;;;;;;;1.53;86.78;100379.63;5054645;28;20071;-65
2021/12/25 08:44:05;;;;;;;19.77;11.98;;;;;;;1.48;87.30;100380.88;5023102;28;20082;-65
2021/12/25 08:47:04;;;;;;;17.70;10.98;;;;;;;1.65;86.47;100392.81;5055728;28;20041;-65
2021/12/25 08:49:24;;;;;;;16.33;10.48;;;;;;;1.61;86.75;100394.78;5072524;28;20051;-65
2021/12/25 08:51:52;;;;;;;17.50;10.82;;;;;;;1.60;86.83;100387.91;5072362;28;20044;-64
2021/12/25 08:54:19;;;;;;;17.30;10.70;;;;;;;1.59;86.68;100401.09;5037308;28;20053;-64
2021/12/25 08:56:45;;;;;;;18.73;10.88;;;;;;;1.68;86.49;100392.59;5072183;28;20059;-65
2021/12/25 08:59:12;;;;;;;18.40;11.40;;;;;;;1.53;86.92;100394.50;5065989;28;20080;-65
2021/12/25 09:01:39;;;;;;;17.75;11.15;;;;;;;1.58;86.39;100405.44;5047121;28;20554;-65
2021/12/25 09:04:06;;;;;;;17.13;11.02;;;;;;;1.58;86.92;100400.22;5070839;28;20140;-65
2021/12/25 09:06:33;;;;;;;19.48;11.65;;;;;;;1.85;86.95;100409.75;5054061;28;20390;-65
2021/12/25 09:09:05;;;;;;;19.45;11.40;;;;;;;1.81;85.49;100403.06;5072498;28;20121;-64
2021/12/25 09:11:33;;;;;;;16.63;10.27;;;;;;;1.90;86.56;100413.72;5072363;28;20048;-65
2021/12/25 09:14:00;;;;;;;19.50;11.38;;;;;;;2.05;85.62;100413.59;5054558;28;20055;-64
2021/12/25 09:16:27;;;;;;;18.13;10.50;;;;;;;2.19;85.23;100420.47;5037983;28;20045;-66
2021/12/25 09:18:54;;;;;;;16.80;10.45;;;;;;;2.27;84.91;100408.53;5065321;28;20068;-65
2021/12/25 09:21:21;;;;;;;16.20;10.00;;;;;;;2.15;84.30;100417.25;5067558;28;20052;-66
2021/12/25 09:23:48;;;;;;;16.90;10.50;;;;;;;2.10;84.24;100414.94;5071391;28;20049;-66
2021/12/25 09:26:17;;;;;;;18.38;10.73;;;;;;;2.00;85.15;100413.06;5071462;28;20512;-66
2021/12/25 09:28:45;;;;;;;17.75;10.73;;;;;;;1.90;84.72;100416.31;5071782;28;20082;-65
2021/12/25 09:31:13;;;;;;;17.83;11.00;;;;;;;2.13;86.06;100419.13;5071156;28;20413;-65
2021/12/25 09:33:39;;;;;;;17.83;11.18;;;;;;;2.15;86.11;100429.47;5075427;28;20387;-64
2021/12/25 09:36:10;;;;;;;18.45;11.48;;;;;;;2.01;85.18;100425.22;5040888;28;20041;-64
2021/12/25 09:38:37;;;;;;;17.67;10.90;;;;;;;1.95;84.45;100425.63;5059870;28;20048;-65
2021/12/25 09:41:05;;;;;;;16.63;10.18;;;;;;;2.02;85.62;100430.34;5075787;28;20134;-65
2021/12/25 09:43:33;;;;;;;19.00;11.40;;;;;;;2.10;85.49;100438.50;5075412;28;20041;-64
2021/12/25 09:46:01;;;;;;;22.95;12.10;;;;;;;2.25;85.23;100448.84;5091683;28;20044;-66
2021/12/25 09:48:28;;;;;;;18.70;11.02;;;;;;;2.20;84.62;100443.94;5094468;28;20050;-65
2021/12/25 09:50:55;;;;;;;19.17;11.02;;;;;;;2.02;84.58;100439.97;5095615;28;20044;-65
2021/12/25 09:53:22;;;;;;;17.13;11.02;;;;;;;1.88;84.90;100447.00;5094237;28;20071;-65
2021/12/25 09:55:49;;;;;;;17.20;10.57;;;;;;;1.94;84.20;100444.91;5095394;28;20036;-64
2021/12/25 09:58:16;;;;;;;21.02;12.65;;;;;;;1.78;84.68;100445.94;5095450;28;20043;-65
2021/12/25 10:00:46;;;;;;;18.17;11.77;;;;;;;1.97;84.38;100445.53;5076159;28;20060;-64
2021/12/25 10:03:21;;;;;;;21.17;12.75;;;;;;;1.92;85.52;100452.84;5074360;28;20052;-66
2021/12/25 10:05:50;;;;;;;21.90;12.30;;;;;;;1.80;85.16;100451.94;5073413;28;20045;-65
2021/12/25 10:08:20;;;;;;;18.35;10.98;;;;;;;1.90;84.32;100452.13;5075182;28;20132;-65
2021/12/25 10:11:01;;;;;;;17.38;11.10;;;;;;;1.90;85.32;100463.41;5075022;28;20131;-65
2021/12/25 10:13:36;;;;;;;18.80;10.98;;;;;;;1.85;84.37;100459.44;5074438;28;20091;-65
2021/12/25 10:16:31;;;;;;;17.20;10.70;;;;;;;1.83;84.58;100456.09;5073108;28;20050;-64
2021/12/25 10:19:16;;;;;;;17.75;10.70;;;;;;;1.96;84.43;100454.31;5093340;28;20066;-64
2021/12/25 10:21:43;;;;;;;17.67;10.63;;;;;;;1.92;84.08;100461.53;5094999;28;20067;-64
2021/12/25 10:24:18;;;;;;;18.88;10.77;;;;;;;1.97;84.12;100455.16;5093955;28;20586;-64
2021/12/25 10:26:47;;;;;;;16.40;10.25;;;;;;;1.91;83.24;100457.25;5093797;28;20131;-64
2021/12/25 10:29:19;;;;;;;16.67;10.80;;;;;;;2.05;84.10;100456.28;5094986;28;20405;-64
2021/12/25 10:31:47;;;;;;;15.20;9.65;;;;;;;2.18;84.48;100448.41;5093776;28;20044;-64
2021/12/25 10:34:20;;;;;;;16.40;9.90;;;;;;;1.95;83.25;100451.78;5091607;28;20052;-64
2021/12/25 10:36:47;;;;;;;18.55;9.75;;;;;;;2.08;83.75;100450.03;5094875;28;20465;-63
2021/12/25 10:39:23;;;;;;;16.50;10.50;;;;;;;2.14;82.87;100443.53;5093820;28;20522;-64
2021/12/25 10:42:11;;;;;;;16.35;9.00;;;;;;;2.11;83.04;100444.56;5077139;28;20123;-64
2021/12/25 10:44:41;;;;;;;17.23;9.40;;;;;;;2.03;82.50;100441.66;5076855;28;20779;-64
2021/12/25 10:47:15;;;;;;;16.58;9.05;;;;;;;2.12;83.37;100443.63;5094807;28;20036;-63
2021/12/25 10:49:47;;;;;;;16.88;9.20;;;;;;;2.28;83.22;100440.78;5093578;28;20068;-64
2021/12/25 10:54:58;;;;;;;18.23;9.00;;;;;;;2.07;82.46;100441.34;5115470;27;20404;-65
2021/12/25 10:57:48;;;;;;;17.15;9.23;;;;;;;1.90;82.98;100442.47;5110596;28;20078;-65
2021/12/25 11:03:03;;;;;;;16.25;8.90;;;;;;;2.27;82.12;100432.09;5110454;27;20125;-65
2021/12/25 11:05:34;;;;;;;17.98;8.95;;;;;;;2.27;83.17;100442.56;5087967;28;20063;-64
2021/12/25 11:08:16;;;;;;;16.35;9.55;;;;;;;2.11;83.88;100434.94;5090094;28;20067;-65
2021/12/25 11:10:53;;;;;;;;;;;;;;;2.41;81.98;100438.94;5072630;28;20493;-65
2021/12/25 11:19:13;;;;;;;18.02;9.18;;;;;;;2.48;82.88;100447.22;5130962;27;20387;-63
2021/12/25 11:27:04;;;;;;;15.00;8.20;;;;;;;2.40;80.22;100453.00;5118471;27;20327;-65
2021/12/25 11:29:34;;;;;;;14.18;8.48;;;;;;;2.31;81.07;100461.50;5089262;28;20116;-65
2021/12/25 11:32:04;;;;;;;15.00;7.80;;;;;;;2.10;80.78;100472.50;5087157;28;20149;-65
2021/12/25 11:34:31;;;;;;;13.73;7.72;;;;;;;2.01;80.12;100467.09;5106625;28;20055;-65
2021/12/25 11:37:00;;;;;;;15.75;8.02;;;;;;;1.98;81.86;100477.75;5106684;28;20036;-65
2021/12/25 11:39:29;;;;;;;17.42;8.00;;;;;;;1.95;82.48;100470.09;5089066;28;20093;-64
2021/12/25 11:42:03;;;;;;;13.73;7.68;;;;;;;1.98;81.82;100477.75;5088529;28;20396;-65
2021/12/25 11:44:52;;;;;;;15.43;8.00;;;;;;;2.06;81.22;100478.06;5089869;28;20063;-65
2021/12/25 11:47:38;;;;;;;13.30;8.00;;;;;;;2.20;81.20;100480.59;5094436;28;20391;-65
2021/12/25 11:50:11;;;;;;;14.60;7.40;;;;;;;2.33;81.91;100480.56;5091000;28;20124;-65
2021/12/25 11:52:45;;;;;;;14.13;7.68;;;;;;;2.23;80.07;100485.59;5089583;28;20045;-64
2021/12/25 11:55:29;;;;;;;14.35;7.45;;;;;;;2.09;80.92;100476.09;5069670;28;20048;-65
2021/12/25 11:58:16;;;;;;;14.02;7.53;;;;;;;2.16;81.25;100475.66;5108931;28;20127;-65
2021/12/25 12:00:47;;;;;;;14.80;8.10;;;;;;;2.06;81.08;100468.44;5096755;28;20041;-65
2021/12/25 12:03:35;;;;;;;12.10;7.00;;;;;;;2.10;79.42;100467.28;5071582;28;20047;-66
2021/12/25 12:06:02;;;;;;;15.40;7.45;;;;;;;2.08;79.73;100470.97;5069144;28;20048;-65
2021/12/25 12:08:55;;;;;;;14.93;8.48;;;;;;;2.19;80.29;100460.56;5090721;28;20035;-65
2021/12/25 12:11:45;;;;;;;12.85;6.82;;;;;;;2.09;80.34;100449.06;5109195;28;20055;-64
2021/12/25 12:14:22;;;;;;;13.35;6.55;;;;;;;2.11;79.66;100453.25;5089748;28;20487;-65
2021/12/25 12:17:25;;;;;;;13.27;6.35;;;;;;;2.11;79.67;100457.63;5080363;28;20123;-64
2021/12/25 12:19:54;;;;;;;12.63;7.07;;;;;;;2.10;79.85;100453.38;5108920;28;20040;-65
2021/12/25 12:27:48;;;;;;;14.07;7.60;;;;;;;2.25;78.93;100454.91;5071540;27;20731;-65
2021/12/25 12:30:36;;;;;;;15.82;7.75;;;;;;;2.15;78.22;100446.03;5067116;28;20076;-67
2021/12/25 12:36:00;;;;;;;12.20;6.63;;;;;;;2.07;79.94;100451.81;5070037;27;20383;-64
2021/12/25 12:41:21;;;;;;;13.00;6.88;;;;;;;2.20;79.32;100469.25;5130574;27;20594;-63
2021/12/25 12:43:54;;;;;;;12.32;6.50;;;;;;;2.15;78.96;100466.13;5129553;28;20071;-64
2021/12/25 12:46:22;;;;;;;11.95;6.72;;;;;;;2.17;79.11;100472.94;5130485;28;20054;-64
2021/12/25 12:49:07;;;;;;;15.35;7.05;;;;;;;2.20;79.73;100475.34;5130064;28;20050;-64
2021/12/25 12:51:36;;;;;;;13.40;7.15;;;;;;;2.22;78.69;100476.06;5129352;28;20129;-64
2021/12/25 12:54:03;;;;;;;14.07;7.22;;;;;;;1.99;79.71;100468.97;5111871;28;20549;-64
2021/12/25 12:56:30;;;;;;;13.23;7.40;;;;;;;1.96;79.02;100479.63;5111813;28;20049;-63
2021/12/25 12:59:00;;;;;;;13.70;7.55;;;;;;;2.01;80.45;100482.78;5124536;28;20496;-64
2021/12/25 13:01:27;;;;;;;16.27;7.22;;;;;;;2.06;79.83;100481.53;5092187;28;20040;-63
2021/12/25 13:03:58;;;;;;;13.85;7.20;;;;;;;2.14;79.70;100488.00;5089961;28;20047;-64
2021/12/25 13:06:28;;;;;;;15.02;7.20;;;;;;;2.10;78.65;100479.53;5110735;28;20143;-64
2021/12/25 13:08:56;;;;;;;13.65;6.68;;;;;;;2.02;78.77;100474.84;5102079;28;20071;-63
2021/12/25 13:11:28;;;;;;;12.07;6.85;;;;;;;1.98;79.94;100470.72;5092052;28;20416;-64
2021/12/25 13:14:00;;;;;;;15.82;7.00;;;;;;;2.05;79.71;100468.53;5101897;28;20040;-64
2021/12/25 13:16:44;;;;;;;12.43;6.20;;;;;;;2.02;80.44;100482.69;5109785;28;20051;-64
2021/12/25 13:19:11;;;;;;;12.65;6.40;;;;;;;2.00;79.11;100488.94;5075281;28;20119;-64
2021/12/25 13:21:38;;;;;;;11.77;6.85;;;;;;;2.08;79.77;100489.28;5087473;28;20039;-64